createdAt,value
2023-08-31T00:00:55.919Z,16.40
2023-08-31T00:03:23.140Z,16.30
2023-08-31T00:05:52.467Z,16.30
2023-08-31T00:08:19.711Z,16.80
2023-08-31T00:10:46.755Z,16.30
2023-08-31T00:13:13.987Z,16.40
2023-08-31T00:15:42.455Z,16.40
2023-08-31T00:18:12.459Z,16.90
2023-08-31T00:20:39.833Z,16.40
2023-08-31T00:23:07.165Z,16.70
2023-08-31T00:25:34.414Z,16.40
2023-08-31T00:28:05.990Z,16.40
2023-08-31T00:30:34.051Z,16.30
2023-08-31T00:33:01.766Z,16.30
2023-08-31T00:35:29.683Z,16.30
2023-08-31T00:38:01.674Z,16.30
2023-08-31T00:40:32.218Z,16.30
2023-08-31T00:42:59.279Z,16.30
2023-08-31T00:45:26.443Z,16.30
2023-08-31T00:47:53.501Z,16.20
2023-08-31T00:50:20.890Z,16.70
2023-08-31T00:52:48.735Z,16.20
2023-08-31T00:55:18.901Z,16.20
2023-08-31T00:57:46.726Z,16.20
2023-08-31T01:00:15.985Z,16.10
2023-08-31T01:03:07.632Z,16.10
2023-08-31T01:06:14.161Z,16.10
2023-08-31T01:09:00.129Z,16.10
2023-08-31T01:11:52.639Z,16.00
2023-08-31T01:14:28.991Z,16.10
2023-08-31T01:17:01.741Z,16.30
2023-08-31T01:19:53.551Z,15.80
2023-08-31T01:23:04.467Z,15.90
2023-08-31T01:25:34.152Z,15.80
2023-08-31T01:28:03.060Z,15.80
2023-08-31T01:30:35.814Z,15.70
2023-08-31T01:33:03.662Z,15.70
2023-08-31T01:35:44.301Z,15.70
2023-08-31T01:38:13.667Z,15.60
2023-08-31T01:41:02.015Z,15.60
2023-08-31T01:43:32.722Z,15.60
2023-08-31T01:46:04.309Z,15.60
2023-08-31T01:48:47.411Z,15.50
2023-08-31T01:51:18.367Z,15.40
2023-08-31T01:53:45.736Z,15.40
2023-08-31T01:56:15.009Z,15.40
2023-08-31T01:58:42.152Z,15.30
2023-08-31T02:01:09.383Z,15.30
2023-08-31T02:03:36.558Z,15.70
2023-08-31T02:06:05.311Z,15.30
2023-08-31T02:08:33.425Z,15.40
2023-08-31T02:11:00.950Z,15.30
2023-08-31T02:13:28.563Z,15.30
2023-08-31T02:15:55.664Z,15.30
2023-08-31T02:18:23.310Z,15.40
2023-08-31T02:20:54.719Z,15.20
2023-08-31T02:23:22.182Z,15.20
2023-08-31T02:25:52.675Z,15.20
2023-08-31T02:28:24.192Z,15.20
2023-08-31T02:31:03.930Z,15.20
2023-08-31T02:33:40.072Z,15.20
2023-08-31T02:36:09.336Z,15.20
2023-08-31T02:38:37.367Z,15.20
2023-08-31T02:41:04.335Z,15.20
2023-08-31T02:43:31.687Z,15.20
2023-08-31T02:46:03.516Z,15.20
2023-08-31T02:48:33.498Z,15.10
2023-08-31T02:51:03.768Z,15.10
2023-08-31T02:53:34.888Z,15.10
2023-08-31T02:56:03.391Z,15.10
2023-08-31T02:58:31.083Z,15.10
2023-08-31T03:01:12.406Z,15.10
2023-08-31T03:03:43.692Z,15.10
2023-08-31T03:06:11.582Z,15.20
2023-08-31T03:08:39.644Z,15.10
2023-08-31T03:11:07.264Z,15.10
2023-08-31T03:13:35.194Z,15.10
2023-08-31T03:16:05.409Z,15.50
2023-08-31T03:18:32.711Z,15.10
2023-08-31T03:21:02.015Z,15.10
2023-08-31T03:23:37.017Z,15.10
2023-08-31T03:26:11.670Z,15.10
2023-08-31T03:28:43.627Z,15.10
2023-08-31T03:31:14.131Z,15.10
2023-08-31T03:33:46.081Z,15.10
2023-08-31T03:36:15.485Z,15.10
2023-08-31T03:38:44.135Z,15.10
2023-08-31T03:41:17.691Z,15.10
2023-08-31T03:43:46.785Z,15.10
2023-08-31T03:46:14.072Z,15.10
2023-08-31T03:48:41.374Z,15.00
2023-08-31T03:51:10.559Z,15.00
2023-08-31T03:53:37.945Z,15.00
2023-08-31T03:56:05.689Z,15.00
2023-08-31T03:58:33.561Z,15.00
2023-08-31T04:01:00.896Z,15.10
2023-08-31T04:03:28.580Z,15.00
2023-08-31T04:05:59.695Z,15.00
2023-08-31T04:08:28.408Z,15.00
2023-08-31T04:10:58.612Z,15.00
2023-08-31T04:13:27.042Z,15.00
2023-08-31T04:15:54.981Z,15.00
2023-08-31T04:18:22.804Z,14.90
2023-08-31T04:20:52.564Z,14.90
2023-08-31T04:23:20.877Z,14.90
2023-08-31T04:25:48.881Z,14.90
2023-08-31T04:28:15.930Z,14.90
2023-08-31T04:30:43.069Z,14.90
2023-08-31T04:33:10.956Z,14.80
2023-08-31T04:35:38.290Z,14.90
2023-08-31T04:38:05.372Z,14.80
2023-08-31T04:40:32.504Z,15.40
2023-08-31T04:42:59.730Z,15.20
2023-08-31T04:45:27.415Z,14.90
2023-08-31T04:47:54.509Z,14.90
2023-08-31T04:50:21.645Z,14.80
2023-08-31T04:52:48.793Z,14.90
2023-08-31T04:55:15.905Z,14.80
2023-08-31T04:57:43.056Z,14.90
2023-08-31T05:00:14.061Z,14.90
2023-08-31T05:02:42.746Z,14.90
2023-08-31T05:05:14.112Z,14.90
2023-08-31T05:07:42.158Z,14.90
2023-08-31T05:10:12.615Z,14.90
2023-08-31T05:12:44.952Z,14.90
2023-08-31T05:15:20.975Z,14.90
2023-08-31T05:17:53.860Z,14.90
2023-08-31T05:20:24.548Z,14.90
2023-08-31T05:22:53.664Z,15.40
2023-08-31T05:25:28.452Z,14.90
2023-08-31T05:28:00.964Z,15.00
2023-08-31T05:30:29.538Z,15.00
2023-08-31T05:33:00.988Z,15.10
2023-08-31T05:35:32.075Z,15.10
2023-08-31T05:37:59.194Z,15.20
2023-08-31T05:40:26.235Z,15.30
2023-08-31T05:42:53.256Z,15.40
2023-08-31T05:45:20.255Z,15.60
2023-08-31T05:47:47.378Z,15.90
2023-08-31T05:50:14.546Z,16.10
2023-08-31T05:52:45.122Z,16.00
2023-08-31T05:55:12.194Z,16.00
2023-08-31T05:57:39.327Z,16.30
2023-08-31T06:00:10.906Z,16.50
2023-08-31T06:02:41.664Z,16.70
2023-08-31T06:05:09.548Z,16.80
2023-08-31T06:07:36.603Z,17.00
2023-08-31T06:10:04.532Z,17.10
2023-08-31T06:12:31.719Z,17.40
2023-08-31T06:14:59.209Z,17.60
2023-08-31T06:17:31.298Z,17.70
2023-08-31T06:20:02.462Z,17.90
2023-08-31T06:22:30.016Z,18.10
2023-08-31T06:24:57.080Z,18.30
2023-08-31T06:27:24.096Z,18.50
2023-08-31T06:29:51.153Z,18.70
2023-08-31T06:32:19.391Z,18.80
2023-08-31T06:35:00.292Z,19.00
2023-08-31T06:37:35.150Z,19.20
2023-08-31T06:40:02.287Z,19.40
2023-08-31T06:42:36.661Z,19.50
2023-08-31T06:45:08.620Z,20.10
2023-08-31T06:47:40.381Z,19.90
2023-08-31T06:50:17.426Z,20.10
2023-08-31T06:52:50.948Z,20.30
2023-08-31T06:55:18.046Z,20.50
2023-08-31T06:57:45.833Z,20.80
2023-08-31T07:00:19.701Z,21.00
2023-08-31T07:02:49.469Z,21.40
2023-08-31T07:05:18.403Z,21.70
2023-08-31T07:07:54.735Z,22.20
2023-08-31T07:10:26.244Z,22.80
2023-08-31T07:12:53.331Z,23.20
2023-08-31T07:15:20.562Z,23.90
2023-08-31T07:17:47.824Z,24.00
2023-08-31T07:20:18.091Z,24.50
2023-08-31T07:22:50.795Z,24.90
2023-08-31T07:25:18.557Z,25.30
2023-08-31T07:27:45.676Z,25.80
2023-08-31T07:30:59.497Z,26.40
2023-08-31T07:33:41.712Z,26.70
2023-08-31T07:36:12.079Z,27.30
2023-08-31T07:38:41.998Z,27.80
2023-08-31T07:41:09.215Z,28.20
2023-08-31T07:43:43.273Z,28.50
2023-08-31T07:46:12.845Z,28.90
2023-08-31T07:48:40.487Z,29.40
2023-08-31T07:51:07.538Z,29.50
2023-08-31T07:53:34.999Z,29.90
2023-08-31T07:56:02.878Z,30.20
2023-08-31T07:58:29.954Z,30.60
2023-08-31T08:00:57.474Z,30.90
2023-08-31T08:03:25.134Z,31.20
2023-08-31T08:05:52.726Z,31.40
2023-08-31T08:08:19.986Z,31.60
2023-08-31T08:10:47.429Z,31.90
2023-08-31T08:13:14.988Z,32.10
2023-08-31T08:15:42.472Z,32.40
2023-08-31T08:18:09.909Z,32.60
2023-08-31T08:20:38.647Z,32.70
2023-08-31T08:23:07.246Z,33.00
2023-08-31T08:25:38.452Z,33.20
2023-08-31T08:28:05.858Z,33.30
2023-08-31T08:30:32.849Z,33.50
2023-08-31T08:33:00.298Z,33.70
2023-08-31T08:35:27.533Z,33.80
2023-08-31T08:37:54.655Z,33.90
2023-08-31T08:40:22.051Z,34.00
2023-08-31T08:42:50.342Z,34.00
2023-08-31T08:45:17.773Z,34.00
2023-08-31T08:47:46.163Z,34.10
2023-08-31T08:50:14.955Z,34.10
2023-08-31T08:52:43.286Z,34.20
2023-08-31T08:55:10.922Z,34.30
2023-08-31T08:57:38.134Z,34.40
2023-08-31T09:00:06.534Z,34.50
2023-08-31T09:02:33.760Z,34.60
2023-08-31T09:05:00.864Z,34.60
2023-08-31T09:07:31.492Z,34.60
2023-08-31T09:10:00.388Z,34.70
2023-08-31T09:12:27.398Z,34.70
2023-08-31T09:15:02.600Z,34.80
2023-08-31T09:17:47.004Z,34.90
2023-08-31T09:20:14.487Z,34.90
2023-08-31T09:22:47.368Z,35.00
2023-08-31T09:25:14.519Z,35.10
2023-08-31T09:27:41.732Z,35.20
2023-08-31T09:30:09.347Z,35.20
2023-08-31T09:32:37.560Z,35.30
2023-08-31T09:35:17.918Z,35.30
2023-08-31T09:37:58.445Z,35.40
2023-08-31T09:40:25.549Z,35.30
2023-08-31T09:42:52.657Z,35.30
2023-08-31T09:48:05.962Z,35.00
2023-08-31T09:50:35.530Z,34.70
2023-08-31T09:53:05.692Z,34.40
2023-08-31T09:55:33.919Z,34.20
2023-08-31T09:58:14.464Z,34.00
2023-08-31T10:00:44.851Z,33.90
2023-08-31T10:03:41.712Z,33.90
2023-08-31T10:06:11.643Z,33.80
2023-08-31T10:08:40.604Z,33.60
2023-08-31T10:11:11.111Z,33.50
2023-08-31T10:13:41.931Z,33.50
2023-08-31T10:16:10.946Z,33.50
2023-08-31T10:18:42.984Z,33.50
2023-08-31T10:21:10.626Z,33.30
2023-08-31T10:23:45.720Z,33.10
2023-08-31T10:26:27.821Z,32.70
2023-08-31T10:28:59.810Z,32.20
2023-08-31T10:31:32.889Z,31.70
2023-08-31T10:34:37.930Z,31.20
2023-08-31T10:37:40.001Z,30.60
2023-08-31T10:40:10.034Z,30.10
2023-08-31T10:42:48.378Z,29.60
2023-08-31T10:45:22.089Z,29.00
2023-08-31T10:48:05.579Z,28.50
2023-08-31T10:55:17.829Z,28.20
2023-08-31T10:57:46.664Z,26.70
2023-08-31T11:00:15.022Z,26.30
2023-08-31T11:02:42.097Z,25.90
2023-08-31T11:05:33.096Z,25.50
2023-08-31T11:08:00.475Z,25.20
2023-08-31T11:10:30.368Z,24.90
2023-08-31T11:12:58.861Z,24.60
2023-08-31T11:15:28.103Z,24.20
2023-08-31T11:17:57.090Z,24.60
2023-08-31T11:20:29.349Z,23.90
2023-08-31T11:22:57.190Z,24.00
2023-08-31T11:25:25.340Z,24.10
2023-08-31T11:28:06.651Z,24.00
2023-08-31T11:30:35.160Z,24.00
2023-08-31T11:33:08.000Z,24.00
2023-08-31T11:35:38.590Z,24.00
2023-08-31T11:38:06.837Z,23.90
2023-08-31T11:40:34.135Z,23.90
2023-08-31T11:43:10.115Z,23.70
2023-08-31T11:45:40.797Z,23.50
2023-08-31T11:48:10.071Z,23.50
2023-08-31T11:50:41.034Z,23.30
2023-08-31T11:53:08.366Z,23.80
2023-08-31T11:59:04.499Z,23.00
2023-08-31T12:01:48.850Z,23.10
2023-08-31T12:04:21.423Z,23.20
2023-08-31T12:06:50.482Z,23.20
2023-08-31T12:09:18.443Z,23.40
2023-08-31T12:11:55.049Z,23.50
2023-08-31T12:14:26.129Z,23.60
2023-08-31T12:17:14.829Z,23.60
2023-08-31T12:19:44.978Z,24.20
2023-08-31T12:22:17.642Z,23.90
2023-08-31T12:24:44.705Z,24.00
2023-08-31T12:27:16.289Z,24.00
2023-08-31T12:29:43.354Z,24.00
2023-08-31T12:32:10.337Z,23.90
2023-08-31T12:34:37.543Z,23.90
2023-08-31T12:37:05.733Z,23.90
2023-08-31T12:39:33.218Z,23.80
2023-08-31T12:42:12.585Z,23.50
2023-08-31T12:44:44.434Z,23.70
2023-08-31T12:47:11.434Z,23.60
2023-08-31T12:49:38.458Z,23.50
2023-08-31T12:52:06.185Z,23.50
2023-08-31T12:54:33.280Z,23.50
2023-08-31T12:57:00.421Z,23.40
2023-08-31T12:59:27.476Z,23.40
2023-08-31T13:01:54.591Z,23.20
2023-08-31T13:04:22.046Z,23.40
2023-08-31T13:06:49.766Z,23.40
2023-08-31T13:09:16.956Z,23.30
2023-08-31T13:11:43.953Z,23.30
2023-08-31T13:14:10.976Z,23.60
2023-08-31T13:16:40.668Z,23.30
2023-08-31T13:19:07.885Z,23.40
2023-08-31T13:21:35.208Z,23.40
2023-08-31T13:24:02.315Z,23.40
2023-08-31T13:26:29.319Z,23.60
2023-08-31T13:28:56.746Z,23.50
2023-08-31T13:31:24.713Z,23.40
2023-08-31T13:33:51.778Z,23.50
2023-08-31T13:36:18.961Z,23.90
2023-08-31T13:38:46.029Z,23.50
2023-08-31T13:41:13.032Z,23.60
2023-08-31T13:43:43.714Z,24.10
2023-08-31T13:46:13.845Z,23.60
2023-08-31T13:48:46.053Z,23.70
2023-08-31T13:51:13.150Z,22.90
2023-08-31T13:53:42.140Z,23.80
2023-08-31T13:56:13.403Z,23.90
2023-08-31T13:58:42.128Z,24.00
2023-08-31T14:01:09.691Z,24.10
2023-08-31T14:03:37.056Z,24.10
2023-08-31T14:06:07.175Z,24.20
2023-08-31T14:08:35.121Z,24.20
2023-08-31T14:11:02.670Z,24.30
2023-08-31T14:13:31.716Z,24.50
2023-08-31T14:16:05.159Z,24.50
2023-08-31T14:18:35.901Z,24.50
2023-08-31T14:21:04.217Z,24.60
2023-08-31T14:23:31.857Z,24.60
2023-08-31T14:26:04.169Z,24.60
2023-08-31T14:28:31.288Z,24.60
2023-08-31T14:30:58.376Z,24.50
2023-08-31T14:33:25.528Z,24.50
2023-08-31T14:35:56.639Z,24.50
2023-08-31T14:38:24.974Z,24.50
2023-08-31T14:41:01.086Z,24.20
2023-08-31T14:43:35.828Z,24.30
2023-08-31T14:46:07.779Z,24.20
2023-08-31T14:48:34.975Z,24.30
2023-08-31T14:51:02.146Z,24.30
2023-08-31T14:53:29.380Z,24.30
2023-08-31T14:55:56.560Z,24.20
2023-08-31T14:58:23.651Z,24.10
2023-08-31T15:00:50.864Z,24.10
2023-08-31T15:03:18.274Z,24.10
2023-08-31T15:05:49.626Z,24.10
2023-08-31T15:08:17.032Z,24.10
2023-08-31T15:10:44.706Z,24.10
2023-08-31T15:13:12.096Z,24.00
2023-08-31T15:15:39.161Z,24.10
2023-08-31T15:18:07.211Z,23.80
2023-08-31T15:20:34.360Z,24.00
2023-08-31T15:23:01.375Z,23.80
2023-08-31T15:25:28.462Z,24.00
2023-08-31T15:27:55.556Z,23.90
2023-08-31T15:30:23.401Z,24.00
2023-08-31T15:32:50.561Z,24.00
2023-08-31T15:35:17.684Z,23.90
2023-08-31T15:37:48.776Z,23.80
2023-08-31T15:40:15.925Z,23.90
2023-08-31T15:42:42.942Z,24.30
2023-08-31T15:45:10.392Z,23.90
2023-08-31T15:47:38.386Z,23.90
2023-08-31T15:50:06.572Z,24.10
2023-08-31T15:52:33.632Z,23.90
2023-08-31T15:55:04.951Z,23.80
2023-08-31T15:57:32.896Z,23.70
2023-08-31T16:00:06.867Z,23.80
2023-08-31T16:02:34.374Z,23.80
2023-08-31T16:05:07.300Z,23.80
2023-08-31T16:07:36.163Z,23.80
2023-08-31T16:10:05.362Z,24.00
2023-08-31T16:12:32.515Z,23.80
2023-08-31T16:14:59.749Z,23.70
2023-08-31T16:17:26.802Z,23.70
2023-08-31T16:19:54.170Z,23.70
2023-08-31T16:22:21.233Z,23.70
2023-08-31T16:24:48.608Z,23.70
2023-08-31T16:27:15.701Z,23.60
2023-08-31T16:29:42.712Z,23.50
2023-08-31T16:32:09.775Z,23.60
2023-08-31T16:34:36.943Z,23.40
2023-08-31T16:37:05.177Z,23.40
2023-08-31T16:39:32.430Z,23.30
2023-08-31T16:42:00.114Z,23.30
2023-08-31T16:44:27.141Z,23.20
2023-08-31T16:46:55.082Z,23.20
2023-08-31T16:49:23.106Z,23.10
2023-08-31T16:51:50.189Z,23.10
2023-08-31T16:54:17.257Z,23.00
2023-08-31T16:56:44.423Z,23.10
2023-08-31T16:59:11.568Z,23.10
2023-08-31T17:01:39.745Z,22.90
2023-08-31T17:04:06.967Z,22.70
2023-08-31T17:06:34.085Z,22.80
2023-08-31T17:09:01.216Z,22.70
2023-08-31T17:11:28.877Z,22.60
2023-08-31T17:13:58.926Z,22.60
2023-08-31T17:16:25.944Z,22.70
2023-08-31T17:18:53.306Z,22.50
2023-08-31T17:21:20.424Z,22.40
2023-08-31T17:23:48.055Z,22.40
2023-08-31T17:26:41.488Z,22.20
2023-08-31T17:29:09.045Z,22.20
2023-08-31T17:31:36.151Z,22.20
2023-08-31T17:34:03.328Z,22.50
2023-08-31T17:36:31.036Z,22.10
2023-08-31T17:38:58.098Z,21.90
2023-08-31T17:41:25.181Z,21.90
2023-08-31T17:43:52.211Z,22.00
2023-08-31T17:46:20.139Z,21.80
2023-08-31T17:48:47.411Z,21.70
2023-08-31T17:51:16.958Z,21.60
2023-08-31T17:53:45.742Z,21.60
2023-08-31T17:56:14.705Z,22.00
2023-08-31T17:58:41.844Z,21.40
2023-08-31T18:01:08.996Z,21.20
2023-08-31T18:03:36.182Z,21.40
2023-08-31T18:06:03.933Z,21.30
2023-08-31T18:08:34.490Z,21.20
2023-08-31T18:11:02.150Z,21.10
2023-08-31T18:13:30.090Z,21.10
2023-08-31T18:15:58.177Z,21.00
2023-08-31T18:18:28.753Z,20.90
2023-08-31T18:21:00.910Z,20.90
2023-08-31T18:23:28.405Z,20.90
2023-08-31T18:25:56.767Z,20.80
2023-08-31T18:28:24.072Z,20.70
2023-08-31T18:31:04.231Z,20.70
2023-08-31T18:33:32.485Z,20.70
2023-08-31T18:36:01.238Z,20.60
2023-08-31T18:38:29.116Z,20.50
2023-08-31T18:40:58.218Z,20.40
2023-08-31T18:43:26.506Z,20.50
2023-08-31T18:45:55.941Z,20.30
2023-08-31T18:48:23.520Z,20.30
2023-08-31T18:50:58.764Z,20.70
2023-08-31T18:53:27.877Z,20.10
2023-08-31T18:56:05.536Z,20.10
2023-08-31T18:58:33.086Z,20.10
2023-08-31T19:01:05.243Z,19.90
2023-08-31T19:04:02.473Z,19.80
2023-08-31T19:06:36.058Z,19.80
2023-08-31T19:17:04.982Z,19.70
2023-08-31T19:23:33.210Z,19.60
2023-08-31T19:31:53.017Z,19.10
2023-08-31T19:35:59.254Z,19.40
2023-08-31T19:40:19.551Z,19.20
2023-08-31T19:43:00.359Z,19.30
2023-08-31T19:46:22.626Z,19.20
2023-08-31T19:52:00.204Z,19.10
2023-08-31T19:54:36.279Z,19.10
2023-08-31T19:57:07.806Z,19.10
2023-08-31T19:59:35.750Z,19.00
2023-08-31T20:02:06.589Z,19.00
2023-08-31T20:04:39.196Z,18.90
2023-08-31T20:07:19.289Z,18.80
2023-08-31T20:09:50.845Z,18.90
2023-08-31T20:12:39.323Z,18.80
2023-08-31T20:15:08.261Z,18.80
2023-08-31T20:17:36.367Z,18.70
2023-08-31T20:20:04.970Z,18.70
2023-08-31T20:22:32.294Z,18.60
2023-08-31T20:24:59.386Z,18.80
2023-08-31T20:27:26.674Z,18.60
2023-08-31T20:29:53.788Z,18.50
2023-08-31T20:32:21.079Z,18.50
2023-08-31T20:34:48.860Z,18.40
2023-08-31T20:37:16.018Z,18.40
2023-08-31T20:39:45.199Z,18.30
2023-08-31T20:42:13.004Z,18.40
2023-08-31T20:44:40.334Z,18.20
2023-08-31T20:47:08.883Z,18.30
2023-08-31T20:49:36.884Z,18.50
2023-08-31T20:52:04.781Z,18.50
2023-08-31T20:54:31.900Z,18.20
2023-08-31T20:56:58.893Z,18.10
2023-08-31T20:59:27.075Z,18.10
2023-08-31T21:01:55.250Z,18.50
2023-08-31T21:04:22.396Z,18.30
2023-08-31T21:06:50.449Z,18.20
2023-08-31T21:09:17.618Z,18.10
2023-08-31T21:11:45.025Z,18.10
2023-08-31T21:14:12.295Z,18.00
2023-08-31T21:16:39.462Z,18.00
2023-08-31T21:19:06.630Z,18.00
2023-08-31T21:21:33.895Z,18.20
2023-08-31T21:24:00.877Z,18.30
2023-08-31T21:26:29.136Z,18.00
2023-08-31T21:28:56.285Z,18.00
2023-08-31T21:31:23.438Z,18.00
2023-08-31T21:33:50.471Z,18.00
2023-08-31T21:36:17.518Z,18.00
2023-08-31T21:38:44.782Z,18.30
2023-08-31T21:41:11.894Z,18.00
2023-08-31T21:43:38.910Z,17.90
2023-08-31T21:46:06.065Z,18.10
2023-08-31T21:48:33.313Z,18.00
2023-08-31T21:51:00.724Z,18.00
2023-08-31T21:53:28.053Z,18.00
2023-08-31T21:55:55.064Z,18.00
2023-08-31T21:58:22.074Z,17.90
2023-08-31T22:00:49.162Z,18.00
2023-08-31T22:03:16.303Z,17.90
2023-08-31T22:05:43.590Z,18.00
2023-08-31T22:08:11.940Z,18.00
2023-08-31T22:10:40.782Z,17.90
2023-08-31T22:13:08.961Z,18.00
2023-08-31T22:15:36.277Z,18.00
2023-08-31T22:18:04.972Z,18.00
2023-08-31T22:20:32.618Z,18.00
2023-08-31T22:23:00.742Z,18.00
2023-08-31T22:25:29.265Z,18.00
2023-08-31T22:27:58.938Z,18.00
2023-08-31T22:30:27.390Z,18.00
2023-08-31T22:32:56.057Z,18.00
2023-08-31T22:35:24.749Z,18.00
2023-08-31T22:37:52.662Z,18.00
2023-08-31T22:40:20.031Z,18.10
2023-08-31T22:42:47.028Z,18.00
2023-08-31T22:45:14.409Z,18.00
2023-08-31T22:47:41.595Z,18.10
2023-08-31T22:50:11.949Z,18.20
2023-08-31T22:52:39.283Z,18.00
2023-08-31T22:55:06.727Z,18.50
2023-08-31T22:57:35.230Z,18.00
2023-08-31T23:00:02.504Z,18.00
2023-08-31T23:02:31.148Z,18.00
2023-08-31T23:04:58.149Z,18.00
2023-08-31T23:07:25.149Z,18.30
2023-08-31T23:09:52.866Z,18.00
2023-08-31T23:12:20.338Z,18.10
2023-08-31T23:14:48.879Z,18.00
2023-08-31T23:17:15.885Z,18.00
2023-08-31T23:19:42.918Z,18.00
2023-08-31T23:22:09.906Z,18.00
2023-08-31T23:24:37.645Z,18.00
2023-08-31T23:27:04.910Z,18.00
2023-08-31T23:29:32.624Z,18.00
2023-08-31T23:31:59.740Z,18.00
2023-08-31T23:34:26.695Z,18.10
2023-08-31T23:36:53.737Z,17.90
2023-08-31T23:39:20.784Z,18.00
2023-08-31T23:41:47.759Z,18.00
2023-08-31T23:44:14.745Z,18.00
2023-08-31T23:46:41.994Z,18.00
2023-08-31T23:49:09.056Z,17.90
2023-08-31T23:51:36.107Z,18.00
2023-08-31T23:54:05.738Z,17.90
2023-08-31T23:56:32.960Z,17.90
2023-08-31T23:58:59.949Z,17.90
